createdAt,value
2022-10-04T00:00:02.494Z,89.9
2022-10-04T00:15:02.870Z,89.8
2022-10-04T00:30:02.422Z,90.0
2022-10-04T00:45:02.751Z,91.0
2022-10-04T01:00:03.423Z,91.0
2022-10-04T01:15:02.616Z,92.0
2022-10-04T01:30:03.094Z,92.4
2022-10-04T01:45:02.499Z,92.1
2022-10-04T02:00:02.927Z,92.1
2022-10-04T02:15:02.451Z,92.1
2022-10-04T02:30:02.804Z,92.1
2022-10-04T02:45:03.456Z,92.0
2022-10-04T03:00:02.679Z,92.0
2022-10-04T03:15:03.130Z,92.1
2022-10-04T03:30:02.528Z,92.1
2022-10-04T03:45:02.973Z,92.8
2022-10-04T04:00:02.464Z,93.1
2022-10-04T04:15:02.884Z,93.1
2022-10-04T04:30:02.464Z,93.0
2022-10-04T04:45:02.716Z,93.0
2022-10-04T05:00:03.201Z,93.1
2022-10-04T05:15:02.639Z,93.1
2022-10-04T05:30:03.070Z,93.2
2022-10-04T05:45:02.498Z,93.3
2022-10-04T06:00:04.623Z,93.3
2022-10-04T06:15:02.485Z,93.3
2022-10-04T06:30:02.824Z,93.4
2022-10-04T06:45:03.493Z,93.4
2022-10-04T07:00:02.706Z,93.4
2022-10-04T07:15:03.171Z,93.4
2022-10-04T07:30:02.600Z,93.3
2022-10-04T07:45:03.047Z,93.4
2022-10-04T08:00:02.507Z,93.3
2022-10-04T08:15:02.919Z,93.6
2022-10-04T08:30:02.516Z,93.6
2022-10-04T08:45:02.794Z,90.9
2022-10-04T09:00:03.202Z,88.9
2022-10-04T09:15:02.674Z,79.7
2022-10-04T09:30:03.094Z,71.1
2022-10-04T09:45:02.548Z,63.5
2022-10-04T10:00:02.975Z,59.4
2022-10-04T10:15:02.541Z,56.9
2022-10-04T10:30:02.850Z,53.8
2022-10-04T10:45:02.541Z,54.2
2022-10-04T11:00:02.773Z,53.2
2022-10-04T11:15:03.207Z,51.9
2022-10-04T11:30:02.627Z,48.8
2022-10-04T11:45:03.069Z,49.7
2022-10-04T12:00:02.569Z,49.1
2022-10-04T12:15:02.978Z,48.5
2022-10-04T12:30:02.565Z,48.5
2022-10-04T12:45:02.838Z,48.7
2022-10-04T13:00:02.260Z,48.9
2022-10-04T13:15:02.651Z,49.3
2022-10-04T13:30:03.193Z,50.4
2022-10-04T13:45:02.562Z,49.5
2022-10-04T14:00:03.135Z,51.5
2022-10-04T14:15:02.593Z,52.3
2022-10-04T14:30:02.916Z,54.0
2022-10-04T14:45:02.564Z,56.9
2022-10-04T15:00:02.796Z,58.2
2022-10-04T15:15:03.225Z,60.1
2022-10-04T15:30:02.738Z,61.0
2022-10-04T15:45:03.115Z,61.7
2022-10-04T16:00:02.586Z,62.6
2022-10-04T16:15:03.144Z,63.0
2022-10-04T16:30:25.580Z,64.0
2022-10-04T16:45:02.861Z,66.1
2022-10-04T17:00:02.304Z,67.7
2022-10-04T17:15:02.745Z,67.3
2022-10-04T17:30:03.169Z,68.6
2022-10-04T17:45:02.618Z,68.7
2022-10-04T18:00:03.078Z,69.4
2022-10-04T18:15:02.628Z,70.4
2022-10-04T18:30:02.910Z,70.9
2022-10-04T18:45:02.562Z,71.8
2022-10-04T19:00:02.795Z,73.0
2022-10-04T19:15:03.258Z,73.7
2022-10-04T19:30:02.709Z,74.7
2022-10-04T19:45:03.139Z,75.3
2022-10-04T20:00:02.642Z,76.4
2022-10-04T20:15:03.043Z,77.1
2022-10-04T20:30:02.650Z,78.0
2022-10-04T20:45:02.882Z,79.0
2022-10-04T21:00:02.351Z,79.5
2022-10-04T21:15:02.814Z,80.1
2022-10-04T21:30:02.215Z,81.1
2022-10-04T21:45:02.675Z,81.3
2022-10-04T22:00:03.111Z,81.9
2022-10-04T22:15:02.675Z,81.8
2022-10-04T22:30:03.023Z,82.5
2022-10-04T22:45:02.673Z,83.7
2022-10-04T23:00:02.911Z,84.5
2022-10-04T23:15:02.362Z,85.2
2022-10-04T23:30:02.847Z,87.3
2022-10-04T23:45:02.227Z,87.7
